Airfield :
LOGIN :

Register | Disclaimer

   EN    FR    IT 

 










Legend :    VFR   Marginal VFR   IFR   Intensive IFR   Very Intensive IFR
Visi :
Ceiling :
>= 8 km
>= 3000ft
5 to 8 km
1000 to 3000 ft
1500m to 5 km
500 to 1000 ft
800 to 1500m
200 to 500 ft
< 800m
< 200 ft
Symbols :   Thunderstorms  Fog  Heavy snow  Heavy precipitations  Wind > 20 kt
SIGMETs :     Misc.  Thunderstorms  Icing  Turbulence  Mountain Waves  Volcanic Ashes







- Airport Elevation : 17 ft
- IATA code : CPH


EKCH - København - Kastrup (Copenhagen)

CURRENT METAR :
  • 150020Z 24015KT 9999 BKN011 03/02 Q0986 TEMPO BKN008

EXPIRED METARs :
  • 142350Z 24013KT 9999 BKN011 03/02 Q0986 TEMPO BKN008
  • 142320Z 24015KT 9999 BKN011 03/02 Q0986 TEMPO BKN008
  • 142250Z 24014KT 9999 SCT012 03/02 Q0986 TEMPO BKN008
  • 142220Z 24016KT 9999 BKN009 03/02 Q0986 TEMPO BKN012
  • 142148Z 24015KT 9999 BKN011 03/02 Q0985 TEMPO BKN008

TAF TAF EKCH
Valid from the 15 at 00:00 until the 16 at 00:00 UTC


142253Z 1500/1524 24012KT 9999 BKN020
TEMPO 1500/1504 BKN008
TEMPO 1504/1511 4000 -RASN BKN008
TEMPO 1511/1521 BKN012 FEW020CB
TEMPO 1521/1524 4000 -SHRA BR BKN008 SCT020CB
No reported NOTAMs for that airfield.



MET'MAP, your aeronautical weather chart ! - Copyright ORBIFLY December 2007 - Disclaimer

ORBIFLY MET'MAP TEAM :

Programming & Development : Alexandra Zaïnal
Concept & Development : Baudouin d'Aumeries
Co-Development & Prog : Marc-Olivier Méhu
Technical & hardware support : Manuel Goepfert

Contact : metmap@orbifly.com




SOURCES & CREDITS :

   NOAA